sensor_id;sensor_type;location;lat;lon;timestamp;pressure;altitude;pressure_sealevel;temperature;humidity
60099;BME280;62818;49.394;8.686;2023-05-24T00:00:29;100804.16;;;12.96;79.44
60099;BME280;62818;49.394;8.686;2023-05-24T00:01:29;100806.63;;;12.98;79.42
60099;BME280;62818;49.394;8.686;2023-05-24T00:02:30;100803.66;;;13.15;78.88
60099;BME280;62818;49.394;8.686;2023-05-24T00:03:31;100804.75;;;13.06;78.82
60099;BME280;62818;49.394;8.686;2023-05-24T00:04:33;100805.28;;;13.02;78.79
60099;BME280;62818;49.394;8.686;2023-05-24T00:05:34;100805.09;;;13.03;79.42
60099;BME280;62818;49.394;8.686;2023-05-24T00:06:36;100798.38;;;12.93;80.12
60099;BME280;62818;49.394;8.686;2023-05-24T00:07:37;100802.63;;;13.02;80.31
60099;BME280;62818;49.394;8.686;2023-05-24T00:08:37;100795.88;;;12.91;79.71
60099;BME280;62818;49.394;8.686;2023-05-24T00:09:37;100796.63;;;13.00;80.18
60099;BME280;62818;49.394;8.686;2023-05-24T00:10:38;100787.34;;;12.96;79.82
60099;BME280;62818;49.394;8.686;2023-05-24T00:11:38;100784.78;;;12.88;79.69
60099;BME280;62818;49.394;8.686;2023-05-24T00:12:39;100790.19;;;12.94;79.55
60099;BME280;62818;49.394;8.686;2023-05-24T00:13:39;100786.25;;;12.90;79.23
60099;BME280;62818;49.394;8.686;2023-05-24T00:14:40;100788.91;;;12.90;80.08
60099;BME280;62818;49.394;8.686;2023-05-24T00:15:40;100793.41;;;12.90;79.35
60099;BME280;62818;49.394;8.686;2023-05-24T00:16:40;100790.19;;;12.94;79.51
60099;BME280;62818;49.394;8.686;2023-05-24T00:17:41;100789.47;;;13.00;79.23
60099;BME280;62818;49.394;8.686;2023-05-24T00:18:41;100788.06;;;13.12;79.33
60099;BME280;62818;49.394;8.686;2023-05-24T00:19:45;100790.31;;;13.01;78.78
60099;BME280;62818;49.394;8.686;2023-05-24T00:20:46;100789.13;;;13.03;78.31
60099;BME280;62818;49.394;8.686;2023-05-24T00:21:47;100785.13;;;13.36;77.36
60099;BME280;62818;49.394;8.686;2023-05-24T00:22:47;100777.50;;;13.19;76.66
60099;BME280;62818;49.394;8.686;2023-05-24T00:23:48;100779.97;;;13.20;76.94
60099;BME280;62818;49.394;8.686;2023-05-24T00:24:50;100790.44;;;13.07;77.39
60099;BME280;62818;49.394;8.686;2023-05-24T00:25:51;100782.75;;;13.12;77.45
60099;BME280;62818;49.394;8.686;2023-05-24T00:26:52;100789.69;;;13.13;78.03
60099;BME280;62818;49.394;8.686;2023-05-24T00:27:52;100789.25;;;13.24;77.54
60099;BME280;62818;49.394;8.686;2023-05-24T00:28:52;100787.84;;;12.99;78.20
60099;BME280;62818;49.394;8.686;2023-05-24T00:29:53;100787.16;;;13.34;77.55
60099;BME280;62818;49.394;8.686;2023-05-24T00:30:53;100779.34;;;13.18;77.21
60099;BME280;62818;49.394;8.686;2023-05-24T00:31:54;100780.75;;;13.44;75.51
60099;BME280;62818;49.394;8.686;2023-05-24T00:32:54;100776.13;;;13.37;75.97
60099;BME280;62818;49.394;8.686;2023-05-24T00:33:55;100783.94;;;13.24;76.70
60099;BME280;62818;49.394;8.686;2023-05-24T00:34:55;100776.50;;;13.34;77.58
60099;BME280;62818;49.394;8.686;2023-05-24T00:35:55;100772.09;;;13.12;78.21
60099;BME280;62818;49.394;8.686;2023-05-24T00:36:56;100779.69;;;13.15;79.62
60099;BME280;62818;49.394;8.686;2023-05-24T00:37:57;100774.66;;;13.35;78.56
60099;BME280;62818;49.394;8.686;2023-05-24T00:38:57;100772.94;;;13.13;78.70
60099;BME280;62818;49.394;8.686;2023-05-24T00:39:58;100775.06;;;12.95;80.40
60099;BME280;62818;49.394;8.686;2023-05-24T00:40:58;100781.69;;;12.99;81.43
60099;BME280;62818;49.394;8.686;2023-05-24T00:42:00;100774.50;;;13.36;81.14
60099;BME280;62818;49.394;8.686;2023-05-24T00:43:01;100770.56;;;12.95;80.63
60099;BME280;62818;49.394;8.686;2023-05-24T00:44:01;100767.00;;;13.03;80.75
60099;BME280;62818;49.394;8.686;2023-05-24T00:45:02;100765.00;;;13.05;80.71
60099;BME280;62818;49.394;8.686;2023-05-24T00:47:16;100773.88;;;12.97;81.65
60099;BME280;62818;49.394;8.686;2023-05-24T00:48:17;100765.66;;;13.07;80.30
60099;BME280;62818;49.394;8.686;2023-05-24T00:49:17;100764.88;;;12.98;80.48
60099;BME280;62818;49.394;8.686;2023-05-24T00:50:18;100764.78;;;12.92;80.64
60099;BME280;62818;49.394;8.686;2023-05-24T00:51:19;100758.16;;;13.10;80.42
60099;BME280;62818;49.394;8.686;2023-05-24T00:52:20;100757.09;;;12.97;81.25
60099;BME280;62818;49.394;8.686;2023-05-24T00:53:20;100753.50;;;13.04;80.63
60099;BME280;62818;49.394;8.686;2023-05-24T00:54:20;100754.03;;;12.85;81.20
60099;BME280;62818;49.394;8.686;2023-05-24T00:55:21;100757.09;;;12.97;80.75
60099;BME280;62818;49.394;8.686;2023-05-24T00:56:21;100752.16;;;12.71;81.59
60099;BME280;62818;49.394;8.686;2023-05-24T00:57:22;100752.03;;;12.64;81.70
60099;BME280;62818;49.394;8.686;2023-05-24T00:58:24;100761.00;;;12.86;81.53
60099;BME280;62818;49.394;8.686;2023-05-24T00:59:29;100746.47;;;12.74;81.83
60099;BME280;62818;49.394;8.686;2023-05-24T01:00:30;100755.84;;;13.07;81.80
60099;BME280;62818;49.394;8.686;2023-05-24T01:01:31;100753.28;;;13.14;79.93
60099;BME280;62818;49.394;8.686;2023-05-24T01:02:34;100755.06;;;12.84;80.07
60099;BME280;62818;49.394;8.686;2023-05-24T01:03:34;100748.63;;;12.56;81.52
60099;BME280;62818;49.394;8.686;2023-05-24T01:04:35;100753.47;;;12.75;82.29
60099;BME280;62818;49.394;8.686;2023-05-24T01:05:36;100752.41;;;12.84;80.80
60099;BME280;62818;49.394;8.686;2023-05-24T01:07:39;100754.38;;;12.82;81.00
60099;BME280;62818;49.394;8.686;2023-05-24T01:08:26;100752.94;;;12.94;79.80
60099;BME280;62818;49.394;8.686;2023-05-24T01:10:53;100750.50;;;12.70;80.27
60099;BME280;62818;49.394;8.686;2023-05-24T01:15:41;100745.31;;;12.54;81.09
60099;BME280;62818;49.394;8.686;2023-05-24T01:17:05;100759.75;;;12.37;81.19
60099;BME280;62818;49.394;8.686;2023-05-24T01:18:16;100762.16;;;12.69;79.07
60099;BME280;62818;49.394;8.686;2023-05-24T01:19:39;100754.78;;;12.56;79.62
60099;BME280;62818;49.394;8.686;2023-05-24T01:20:48;100754.22;;;12.84;79.96
60099;BME280;62818;49.394;8.686;2023-05-24T01:21:58;100761.66;;;13.03;78.64
60099;BME280;62818;49.394;8.686;2023-05-24T01:24:29;100755.72;;;13.01;78.70
60099;BME280;62818;49.394;8.686;2023-05-24T01:25:44;100756.66;;;12.71;79.61
60099;BME280;62818;49.394;8.686;2023-05-24T01:27:10;100752.47;;;12.53;80.18
60099;BME280;62818;49.394;8.686;2023-05-24T01:28:11;100757.97;;;12.52;80.48
60099;BME280;62818;49.394;8.686;2023-05-24T01:29:12;100759.88;;;12.66;80.37
60099;BME280;62818;49.394;8.686;2023-05-24T01:30:13;100754.63;;;12.95;78.64
60099;BME280;62818;49.394;8.686;2023-05-24T01:31:15;100761.06;;;12.78;76.46
60099;BME280;62818;49.394;8.686;2023-05-24T01:32:16;100757.53;;;13.00;75.65
60099;BME280;62818;49.394;8.686;2023-05-24T01:33:18;100758.63;;;12.91;75.89
60099;BME280;62818;49.394;8.686;2023-05-24T01:34:19;100759.13;;;12.57;77.39
60099;BME280;62818;49.394;8.686;2023-05-24T01:35:20;100763.91;;;12.62;76.93
60099;BME280;62818;49.394;8.686;2023-05-24T01:36:20;100765.03;;;12.82;77.41
60099;BME280;62818;49.394;8.686;2023-05-24T01:37:21;100767.53;;;12.61;76.89
60099;BME280;62818;49.394;8.686;2023-05-24T01:38:21;100763.69;;;12.49;76.66
60099;BME280;62818;49.394;8.686;2023-05-24T01:39:23;100765.59;;;12.78;77.02
60099;BME280;62818;49.394;8.686;2023-05-24T01:40:28;100774.34;;;12.63;75.04
60099;BME280;62818;49.394;8.686;2023-05-24T01:41:42;100774.13;;;12.50;74.45
60099;BME280;62818;49.394;8.686;2023-05-24T01:44:26;100768.13;;;12.71;72.19
60099;BME280;62818;49.394;8.686;2023-05-24T01:45:36;100774.25;;;12.72;72.03
60099;BME280;62818;49.394;8.686;2023-05-24T01:46:43;100779.13;;;12.68;72.34
60099;BME280;62818;49.394;8.686;2023-05-24T01:49:11;100778.75;;;12.71;72.30
60099;BME280;62818;49.394;8.686;2023-05-24T01:50:23;100776.91;;;12.57;74.92
60099;BME280;62818;49.394;8.686;2023-05-24T01:51:29;100776.97;;;12.49;77.37
60099;BME280;62818;49.394;8.686;2023-05-24T01:52:37;100778.41;;;12.74;75.07
60099;BME280;62818;49.394;8.686;2023-05-24T01:53:41;100777.69;;;12.80;73.81
60099;BME280;62818;49.394;8.686;2023-05-24T01:54:50;100774.44;;;12.70;74.10
60099;BME280;62818;49.394;8.686;2023-05-24T01:55:55;100784.56;;;12.75;74.47
60099;BME280;62818;49.394;8.686;2023-05-24T01:56:57;100775.94;;;12.50;75.61
60099;BME280;62818;49.394;8.686;2023-05-24T01:58:02;100784.53;;;12.60;73.66
60099;BME280;62818;49.394;8.686;2023-05-24T01:59:04;100778.06;;;12.77;73.41
60099;BME280;62818;49.394;8.686;2023-05-24T02:00:06;100787.19;;;12.97;71.97
60099;BME280;62818;49.394;8.686;2023-05-24T02:01:10;100786.78;;;12.86;72.09
60099;BME280;62818;49.394;8.686;2023-05-24T02:02:12;100790.75;;;12.67;74.28
60099;BME280;62818;49.394;8.686;2023-05-24T02:03:13;100779.47;;;12.65;72.32
60099;BME280;62818;49.394;8.686;2023-05-24T02:04:15;100787.53;;;12.57;73.31
60099;BME280;62818;49.394;8.686;2023-05-24T02:05:16;100790.25;;;12.49;72.33
60099;BME280;62818;49.394;8.686;2023-05-24T02:06:16;100777.69;;;12.80;72.36
60099;BME280;62818;49.394;8.686;2023-05-24T02:07:16;100780.63;;;12.48;72.84
60099;BME280;62818;49.394;8.686;2023-05-24T02:08:18;100781.88;;;12.60;71.91
60099;BME280;62818;49.394;8.686;2023-05-24T02:09:18;100781.66;;;12.84;71.19
60099;BME280;62818;49.394;8.686;2023-05-24T02:10:19;100784.97;;;12.86;70.82
60099;BME280;62818;49.394;8.686;2023-05-24T02:11:19;100779.69;;;12.78;71.12
60099;BME280;62818;49.394;8.686;2023-05-24T02:12:19;100785.44;;;13.04;70.56
60099;BME280;62818;49.394;8.686;2023-05-24T02:13:20;100782.56;;;12.54;71.79
60099;BME280;62818;49.394;8.686;2023-05-24T02:14:20;100789.06;;;12.51;71.56
60099;BME280;62818;49.394;8.686;2023-05-24T02:15:21;100788.47;;;12.41;71.53
60099;BME280;62818;49.394;8.686;2023-05-24T02:16:22;100789.16;;;12.58;71.01
60099;BME280;62818;49.394;8.686;2023-05-24T02:17:25;100785.59;;;12.51;71.21
60099;BME280;62818;49.394;8.686;2023-05-24T02:18:26;100789.44;;;12.48;71.04
60099;BME280;62818;49.394;8.686;2023-05-24T02:19:26;100790.25;;;12.49;70.89
60099;BME280;62818;49.394;8.686;2023-05-24T02:20:27;100783.63;;;12.45;71.52
60099;BME280;62818;49.394;8.686;2023-05-24T02:21:30;100782.81;;;12.44;71.79
60099;BME280;62818;49.394;8.686;2023-05-24T02:22:31;100789.59;;;12.47;71.81
60099;BME280;62818;49.394;8.686;2023-05-24T02:23:31;100783.97;;;12.19;74.76
60099;BME280;62818;49.394;8.686;2023-05-24T02:24:32;100788.75;;;12.24;74.20
60099;BME280;62818;49.394;8.686;2023-05-24T02:25:32;100783.25;;;12.25;72.93
60099;BME280;62818;49.394;8.686;2023-05-24T02:26:33;100777.00;;;12.41;74.19
60099;BME280;62818;49.394;8.686;2023-05-24T02:27:33;100793.69;;;12.35;74.11
60099;BME280;62818;49.394;8.686;2023-05-24T02:28:33;100784.44;;;12.45;75.27
60099;BME280;62818;49.394;8.686;2023-05-24T02:29:34;100786.81;;;12.40;75.89
60099;BME280;62818;49.394;8.686;2023-05-24T02:30:35;100788.69;;;12.32;77.53
60099;BME280;62818;49.394;8.686;2023-05-24T02:31:35;100787.53;;;12.34;77.93
60099;BME280;62818;49.394;8.686;2023-05-24T02:32:35;100790.94;;;12.43;77.29
60099;BME280;62818;49.394;8.686;2023-05-24T02:33:36;100782.56;;;12.54;75.31
60099;BME280;62818;49.394;8.686;2023-05-24T02:34:37;100792.13;;;12.40;73.76
60099;BME280;62818;49.394;8.686;2023-05-24T02:35:37;100794.97;;;12.39;73.75
60099;BME280;62818;49.394;8.686;2023-05-24T02:36:40;100788.53;;;12.56;72.20
60099;BME280;62818;49.394;8.686;2023-05-24T02:37:41;100786.59;;;12.50;71.57
60099;BME280;62818;49.394;8.686;2023-05-24T02:38:42;100788.00;;;12.38;72.31
60099;BME280;62818;49.394;8.686;2023-05-24T02:39:42;100786.44;;;12.21;72.29
60099;BME280;62818;49.394;8.686;2023-05-24T02:40:42;100784.44;;;12.23;72.91
60099;BME280;62818;49.394;8.686;2023-05-24T02:41:43;100790.00;;;12.36;72.70
60099;BME280;62818;49.394;8.686;2023-05-24T02:42:43;100798.41;;;12.25;72.57
60099;BME280;62818;49.394;8.686;2023-05-24T02:43:44;100797.38;;;12.26;72.07
60099;BME280;62818;49.394;8.686;2023-05-24T02:44:45;100794.41;;;12.21;72.86
60099;BME280;62818;49.394;8.686;2023-05-24T02:45:48;100792.81;;;12.12;73.66
60099;BME280;62818;49.394;8.686;2023-05-24T02:46:48;100791.75;;;12.21;72.58
60099;BME280;62818;49.394;8.686;2023-05-24T02:47:49;100786.88;;;12.32;72.56
60099;BME280;62818;49.394;8.686;2023-05-24T02:48:49;100786.81;;;12.63;72.56
60099;BME280;62818;49.394;8.686;2023-05-24T02:49:50;100788.41;;;12.27;72.73
60099;BME280;62818;49.394;8.686;2023-05-24T02:50:50;100789.47;;;12.18;72.70
60099;BME280;62818;49.394;8.686;2023-05-24T02:51:51;100788.81;;;12.16;72.72
60099;BME280;62818;49.394;8.686;2023-05-24T02:52:51;100792.78;;;12.20;72.30
60099;BME280;62818;49.394;8.686;2023-05-24T02:53:52;100775.16;;;12.19;72.48
60099;BME280;62818;49.394;8.686;2023-05-24T02:54:52;100793.50;;;12.14;71.90
60099;BME280;62818;49.394;8.686;2023-05-24T02:55:53;100784.94;;;12.26;72.00
60099;BME280;62818;49.394;8.686;2023-05-24T02:56:53;100795.53;;;12.04;73.00
60099;BME280;62818;49.394;8.686;2023-05-24T02:57:55;100791.47;;;12.16;72.62
60099;BME280;62818;49.394;8.686;2023-05-24T02:58:55;100786.75;;;12.26;72.30
60099;BME280;62818;49.394;8.686;2023-05-24T02:59:56;100791.81;;;12.13;71.80
60099;BME280;62818;49.394;8.686;2023-05-24T03:00:56;100800.50;;;12.07;73.99
60099;BME280;62818;49.394;8.686;2023-05-24T03:01:57;100789.53;;;12.32;75.08
60099;BME280;62818;49.394;8.686;2023-05-24T03:02:57;100790.47;;;12.17;75.65
60099;BME280;62818;49.394;8.686;2023-05-24T03:04:01;100795.13;;;11.84;78.33
60099;BME280;62818;49.394;8.686;2023-05-24T03:05:01;100802.28;;;12.14;76.31
60099;BME280;62818;49.394;8.686;2023-05-24T03:06:02;100795.44;;;12.20;74.86
60099;BME280;62818;49.394;8.686;2023-05-24T03:07:02;100786.69;;;12.34;74.46
60099;BME280;62818;49.394;8.686;2023-05-24T03:08:03;100785.63;;;12.43;74.10
60099;BME280;62818;49.394;8.686;2023-05-24T03:09:03;100783.03;;;12.35;74.90
60099;BME280;62818;49.394;8.686;2023-05-24T03:10:04;100784.81;;;12.20;76.21
60099;BME280;62818;49.394;8.686;2023-05-24T03:11:05;100791.22;;;12.03;77.45
60099;BME280;62818;49.394;8.686;2023-05-24T03:12:06;100789.38;;;12.03;78.74
60099;BME280;62818;49.394;8.686;2023-05-24T03:13:06;100783.00;;;11.89;78.94
60099;BME280;62818;49.394;8.686;2023-05-24T03:14:06;100783.59;;;12.00;78.58
60099;BME280;62818;49.394;8.686;2023-05-24T03:15:09;100788.97;;;11.83;77.69
60099;BME280;62818;49.394;8.686;2023-05-24T03:16:09;100785.34;;;11.84;78.20
60099;BME280;62818;49.394;8.686;2023-05-24T03:17:10;100775.94;;;12.05;76.98
60099;BME280;62818;49.394;8.686;2023-05-24T03:18:10;100785.34;;;11.84;77.96
60099;BME280;62818;49.394;8.686;2023-05-24T03:19:10;100787.34;;;11.82;78.52
60099;BME280;62818;49.394;8.686;2023-05-24T03:20:11;100789.34;;;11.80;77.46
60099;BME280;62818;49.394;8.686;2023-05-24T03:21:11;100788.34;;;11.81;77.67
60099;BME280;62818;49.394;8.686;2023-05-24T03:22:12;100784.84;;;11.81;77.31
60099;BME280;62818;49.394;8.686;2023-05-24T03:23:12;100787.13;;;11.92;77.30
60099;BME280;62818;49.394;8.686;2023-05-24T03:24:13;100790.72;;;12.07;75.50
60099;BME280;62818;49.394;8.686;2023-05-24T03:25:14;100790.66;;;11.84;76.32
60099;BME280;62818;49.394;8.686;2023-05-24T03:26:14;100787.38;;;11.66;78.10
60099;BME280;62818;49.394;8.686;2023-05-24T03:27:15;100787.69;;;11.79;77.80
60099;BME280;62818;49.394;8.686;2023-05-24T03:28:16;100788.34;;;12.35;76.05
60099;BME280;62818;49.394;8.686;2023-05-24T03:29:16;100787.75;;;11.94;76.40
60099;BME280;62818;49.394;8.686;2023-05-24T03:30:16;100793.00;;;11.79;76.47
60099;BME280;62818;49.394;8.686;2023-05-24T03:31:17;100793.81;;;11.80;75.94
60099;BME280;62818;49.394;8.686;2023-05-24T03:32:19;100792.78;;;11.89;75.08
60099;BME280;62818;49.394;8.686;2023-05-24T03:33:20;100792.47;;;12.15;74.04
60099;BME280;62818;49.394;8.686;2023-05-24T03:34:20;100794.28;;;11.83;74.47
60099;BME280;62818;49.394;8.686;2023-05-24T03:35:20;100787.34;;;11.82;74.99
60099;BME280;62818;49.394;8.686;2023-05-24T03:36:21;100788.97;;;11.83;74.64
60099;BME280;62818;49.394;8.686;2023-05-24T03:37:21;100792.81;;;11.81;74.80
60099;BME280;62818;49.394;8.686;2023-05-24T03:38:22;100783.59;;;12.00;74.12
60099;BME280;62818;49.394;8.686;2023-05-24T03:39:22;100792.03;;;12.03;74.61
60099;BME280;62818;49.394;8.686;2023-05-24T03:40:22;100794.22;;;12.00;73.86
60099;BME280;62818;49.394;8.686;2023-05-24T03:41:24;100790.91;;;11.98;73.51
60099;BME280;62818;49.394;8.686;2023-05-24T03:42:26;100785.53;;;12.14;73.17
60099;BME280;62818;49.394;8.686;2023-05-24T03:43:26;100791.38;;;12.01;72.71
60099;BME280;62818;49.394;8.686;2023-05-24T03:44:27;100785.47;;;11.91;73.55
60099;BME280;62818;49.394;8.686;2023-05-24T03:45:27;100788.91;;;12.00;74.49
60099;BME280;62818;49.394;8.686;2023-05-24T03:46:27;100790.97;;;12.20;73.64
60099;BME280;62818;49.394;8.686;2023-05-24T03:47:28;100793.63;;;11.89;74.44
60099;BME280;62818;49.394;8.686;2023-05-24T03:48:28;100790.97;;;11.89;76.20
60099;BME280;62818;49.394;8.686;2023-05-24T03:49:29;100800.09;;;11.87;76.20
60099;BME280;62818;49.394;8.686;2023-05-24T03:50:29;100797.28;;;11.88;75.43
60099;BME280;62818;49.394;8.686;2023-05-24T03:51:29;100803.94;;;11.84;75.13
60099;BME280;62818;49.394;8.686;2023-05-24T03:52:30;100797.34;;;11.72;75.93
60099;BME280;62818;49.394;8.686;2023-05-24T03:53:30;100805.09;;;11.82;74.69
60099;BME280;62818;49.394;8.686;2023-05-24T03:54:31;100798.69;;;11.68;76.56
60099;BME280;62818;49.394;8.686;2023-05-24T03:55:31;100803.16;;;11.60;77.28
60099;BME280;62818;49.394;8.686;2023-05-24T03:56:31;100802.69;;;11.56;78.10
60099;BME280;62818;49.394;8.686;2023-05-24T03:57:32;100802.50;;;11.74;77.09
60099;BME280;62818;49.394;8.686;2023-05-24T03:58:32;100802.44;;;11.82;74.63
60099;BME280;62818;49.394;8.686;2023-05-24T03:59:32;100797.69;;;11.69;75.30
60099;BME280;62818;49.394;8.686;2023-05-24T04:00:33;100802.84;;;12.02;75.78
60099;BME280;62818;49.394;8.686;2023-05-24T04:01:33;100797.47;;;11.79;76.43
60099;BME280;62818;49.394;8.686;2023-05-24T04:02:35;100797.97;;;11.82;76.27
60099;BME280;62818;49.394;8.686;2023-05-24T04:03:38;100797.72;;;11.53;78.03
60099;BME280;62818;49.394;8.686;2023-05-24T04:04:40;100801.47;;;11.75;77.42
60099;BME280;62818;49.394;8.686;2023-05-24T04:05:40;100798.84;;;11.59;77.50
60099;BME280;62818;49.394;8.686;2023-05-24T04:06:41;100803.66;;;11.63;78.15
60099;BME280;62818;49.394;8.686;2023-05-24T04:07:41;100796.75;;;11.46;78.68
60099;BME280;62818;49.394;8.686;2023-05-24T04:08:42;100805.31;;;11.64;79.08
60099;BME280;62818;49.394;8.686;2023-05-24T04:09:43;100797.25;;;11.50;78.98
60099;BME280;62818;49.394;8.686;2023-05-24T04:10:43;100796.03;;;11.52;79.21
60099;BME280;62818;49.394;8.686;2023-05-24T04:11:43;100801.63;;;11.81;76.19
60099;BME280;62818;49.394;8.686;2023-05-24T04:12:44;100797.22;;;11.97;75.46
60099;BME280;62818;49.394;8.686;2023-05-24T04:13:44;100798.94;;;11.89;76.57
60099;BME280;62818;49.394;8.686;2023-05-24T04:14:45;100796.03;;;11.68;77.55
60099;BME280;62818;49.394;8.686;2023-05-24T04:15:45;100791.75;;;11.51;78.85
60099;BME280;62818;49.394;8.686;2023-05-24T04:16:45;100794.75;;;11.48;78.70
60099;BME280;62818;49.394;8.686;2023-05-24T04:17:47;100789.44;;;11.48;79.01
60099;BME280;62818;49.394;8.686;2023-05-24T04:18:53;100790.81;;;11.36;79.31
60099;BME280;62818;49.394;8.686;2023-05-24T04:19:54;100791.09;;;11.41;79.41
60099;BME280;62818;49.394;8.686;2023-05-24T04:20:54;100795.00;;;11.77;77.95
60099;BME280;62818;49.394;8.686;2023-05-24T04:21:55;100809.59;;;11.65;77.69
60099;BME280;62818;49.394;8.686;2023-05-24T04:22:56;100795.38;;;11.58;78.12
60099;BME280;62818;49.394;8.686;2023-05-24T04:23:56;100801.06;;;11.47;79.00
60099;BME280;62818;49.394;8.686;2023-05-24T04:24:59;100797.56;;;11.47;78.64
60099;BME280;62818;49.394;8.686;2023-05-24T04:25:59;100789.09;;;11.51;78.24
60099;BME280;62818;49.394;8.686;2023-05-24T04:27:00;100783.66;;;11.45;79.30
60099;BME280;62818;49.394;8.686;2023-05-24T04:28:00;100789.56;;;11.55;79.59
60099;BME280;62818;49.394;8.686;2023-05-24T04:29:03;100786.78;;;11.56;79.42
60099;BME280;62818;49.394;8.686;2023-05-24T04:30:04;100792.38;;;11.69;78.37
60099;BME280;62818;49.394;8.686;2023-05-24T04:31:05;100785.03;;;11.79;78.39
60099;BME280;62818;49.394;8.686;2023-05-24T04:32:06;100791.03;;;11.65;78.23
60099;BME280;62818;49.394;8.686;2023-05-24T04:33:09;100787.09;;;11.53;78.06
60099;BME280;62818;49.394;8.686;2023-05-24T04:34:09;100775.69;;;11.45;78.58
60099;BME280;62818;49.394;8.686;2023-05-24T04:35:12;100779.47;;;11.50;78.42
60099;BME280;62818;49.394;8.686;2023-05-24T04:36:13;100781.47;;;11.48;77.67
60099;BME280;62818;49.394;8.686;2023-05-24T04:37:13;100786.63;;;11.50;76.87
60099;BME280;62818;49.394;8.686;2023-05-24T04:38:16;100781.31;;;11.50;76.76
60099;BME280;62818;49.394;8.686;2023-05-24T04:39:16;100781.97;;;11.44;76.76
60099;BME280;62818;49.394;8.686;2023-05-24T04:40:18;100781.66;;;11.47;77.03
60099;BME280;62818;49.394;8.686;2023-05-24T04:41:21;100783.28;;;11.48;77.46
60099;BME280;62818;49.394;8.686;2023-05-24T04:42:23;100786.44;;;11.51;77.08
60099;BME280;62818;49.394;8.686;2023-05-24T04:43:23;100786.84;;;11.79;75.99
60099;BME280;62818;49.394;8.686;2023-05-24T04:44:25;100783.59;;;11.61;75.82
60099;BME280;62818;49.394;8.686;2023-05-24T04:45:26;100781.47;;;11.56;77.01
60099;BME280;62818;49.394;8.686;2023-05-24T04:46:26;100778.31;;;11.53;78.30
60099;BME280;62818;49.394;8.686;2023-05-24T04:47:27;100784.75;;;11.58;77.67
60099;BME280;62818;49.394;8.686;2023-05-24T04:48:27;100777.44;;;11.60;77.03
60099;BME280;62818;49.394;8.686;2023-05-24T04:49:28;100780.31;;;11.51;77.64
60099;BME280;62818;49.394;8.686;2023-05-24T04:50:28;100785.78;;;11.49;78.36
60099;BME280;62818;49.394;8.686;2023-05-24T04:51:29;100783.28;;;11.48;77.86
60099;BME280;62818;49.394;8.686;2023-05-24T04:52:29;100782.78;;;11.52;78.02
60099;BME280;62818;49.394;8.686;2023-05-24T04:53:30;100795.53;;;11.65;77.42
60099;BME280;62818;49.394;8.686;2023-05-24T04:54:31;100791.81;;;11.82;75.98
60099;BME280;62818;49.394;8.686;2023-05-24T04:55:32;100794.13;;;12.16;75.39
60099;BME280;62818;49.394;8.686;2023-05-24T04:56:36;100797.53;;;11.71;75.99
60099;BME280;62818;49.394;8.686;2023-05-24T04:57:37;100791.47;;;11.38;78.33
60099;BME280;62818;49.394;8.686;2023-05-24T04:58:38;100795.25;;;11.44;78.33
60099;BME280;62818;49.394;8.686;2023-05-24T04:59:38;100791.28;;;11.40;78.89
60099;BME280;62818;49.394;8.686;2023-05-24T05:00:38;100792.44;;;11.45;79.62
60099;BME280;62818;49.394;8.686;2023-05-24T05:01:39;100790.78;;;11.44;79.38
60099;BME280;62818;49.394;8.686;2023-05-24T05:02:40;100793.63;;;11.43;79.59
60099;BME280;62818;49.394;8.686;2023-05-24T05:03:40;100802.59;;;11.34;79.90
60099;BME280;62818;49.394;8.686;2023-05-24T05:04:40;100797.25;;;11.42;79.99
60099;BME280;62818;49.394;8.686;2023-05-24T05:05:41;100802.78;;;11.32;80.58
60099;BME280;62818;49.394;8.686;2023-05-24T05:06:42;100807.06;;;11.33;80.48
60099;BME280;62818;49.394;8.686;2023-05-24T05:07:43;100804.38;;;11.41;79.80
60099;BME280;62818;49.394;8.686;2023-05-24T05:08:44;100802.06;;;11.46;80.30
60099;BME280;62818;49.394;8.686;2023-05-24T05:09:44;100810.34;;;11.51;80.52
60099;BME280;62818;49.394;8.686;2023-05-24T05:10:45;100807.38;;;11.30;81.75
60099;BME280;62818;49.394;8.686;2023-05-24T05:11:45;100809.75;;;11.17;82.04
60099;BME280;62818;49.394;8.686;2023-05-24T05:12:46;100811.09;;;11.13;82.74
60099;BME280;62818;49.394;8.686;2023-05-24T05:13:46;100814.41;;;11.15;82.79
60099;BME280;62818;49.394;8.686;2023-05-24T05:14:46;100806.78;;;11.12;83.10
60099;BME280;62818;49.394;8.686;2023-05-24T05:15:47;100805.31;;;11.09;83.47
60099;BME280;62818;49.394;8.686;2023-05-24T05:16:47;100813.44;;;11.08;82.95
60099;BME280;62818;49.394;8.686;2023-05-24T05:17:47;100815.06;;;11.09;83.32
60099;BME280;62818;49.394;8.686;2023-05-24T05:18:48;100808.75;;;11.18;83.50
60099;BME280;62818;49.394;8.686;2023-05-24T05:19:49;100813.38;;;11.32;83.19
60099;BME280;62818;49.394;8.686;2023-05-24T05:20:49;100814.38;;;11.31;83.69
60099;BME280;62818;49.394;8.686;2023-05-24T05:21:50;100814.53;;;11.38;82.24
60099;BME280;62818;49.394;8.686;2023-05-24T05:22:51;100812.69;;;11.30;82.80
60099;BME280;62818;49.394;8.686;2023-05-24T05:23:51;100807.75;;;11.27;82.91
60099;BME280;62818;49.394;8.686;2023-05-24T05:24:51;100809.69;;;11.41;82.47
60099;BME280;62818;49.394;8.686;2023-05-24T05:25:52;100811.50;;;11.49;82.46
60099;BME280;62818;49.394;8.686;2023-05-24T05:26:52;100816.25;;;11.61;81.75
60099;BME280;62818;49.394;8.686;2023-05-24T05:27:53;100810.34;;;11.51;81.88
60099;BME280;62818;49.394;8.686;2023-05-24T05:28:53;100806.22;;;11.33;82.27
60099;BME280;62818;49.394;8.686;2023-05-24T05:29:53;100805.56;;;11.31;82.78
60099;BME280;62818;49.394;8.686;2023-05-24T05:30:54;100809.06;;;11.31;82.50
60099;BME280;62818;49.394;8.686;2023-05-24T05:31:55;100802.56;;;11.42;82.39
60099;BME280;62818;49.394;8.686;2023-05-24T05:32:56;100803.72;;;11.39;81.95